sensor_id;sensor_type;location;lat;lon;timestamp;P1;durP1;ratioP1;P2;durP2;ratioP2
9234;SDS011;4652;42.716;23.218;2022-12-18T00:04:02;7.23;;;5.70;;
9234;SDS011;4652;42.716;23.218;2022-12-18T00:10:47;9.53;;;7.03;;
9234;SDS011;4652;42.716;23.218;2022-12-18T00:17:30;9.37;;;7.37;;
9234;SDS011;4652;42.716;23.218;2022-12-18T00:24:12;8.40;;;6.60;;
9234;SDS011;4652;42.716;23.218;2022-12-18T00:31:00;7.80;;;6.50;;
9234;SDS011;4652;42.716;23.218;2022-12-18T00:37:42;12.10;;;8.30;;
9234;SDS011;4652;42.716;23.218;2022-12-18T00:44:24;10.37;;;7.73;;
9234;SDS011;4652;42.716;23.218;2022-12-18T00:51:08;10.50;;;8.17;;
9234;SDS011;4652;42.716;23.218;2022-12-18T00:57:50;9.80;;;7.90;;
9234;SDS011;4652;42.716;23.218;2022-12-18T01:04:33;10.53;;;8.20;;
9234;SDS011;4652;42.716;23.218;2022-12-18T01:11:17;12.17;;;8.13;;
9234;SDS011;4652;42.716;23.218;2022-12-18T01:18:00;10.33;;;7.90;;
9234;SDS011;4652;42.716;23.218;2022-12-18T01:24:42;12.30;;;8.73;;
9234;SDS011;4652;42.716;23.218;2022-12-18T01:31:26;11.47;;;8.60;;
9234;SDS011;4652;42.716;23.218;2022-12-18T01:38:10;10.13;;;8.07;;
9234;SDS011;4652;42.716;23.218;2022-12-18T01:45:05;10.67;;;7.43;;
9234;SDS011;4652;42.716;23.218;2022-12-18T01:52:04;9.53;;;7.73;;
9234;SDS011;4652;42.716;23.218;2022-12-18T01:58:48;9.07;;;7.23;;
9234;SDS011;4652;42.716;23.218;2022-12-18T04:05:17;10.63;;;8.43;;
9234;SDS011;4652;42.716;23.218;2022-12-18T08:08:06;22.37;;;14.07;;
9234;SDS011;4652;42.716;23.218;2022-12-18T08:14:48;21.90;;;13.30;;
9234;SDS011;4652;42.716;23.218;2022-12-18T08:21:30;20.97;;;13.80;;
9234;SDS011;4652;42.716;23.218;2022-12-18T08:28:14;23.30;;;14.03;;
9234;SDS011;4652;42.716;23.218;2022-12-18T08:34:57;23.67;;;15.30;;
9234;SDS011;4652;42.716;23.218;2022-12-18T08:41:39;21.97;;;14.17;;
9234;SDS011;4652;42.716;23.218;2022-12-18T08:48:22;20.00;;;13.47;;
9234;SDS011;4652;42.716;23.218;2022-12-18T08:55:05;20.57;;;13.57;;
9234;SDS011;4652;42.716;23.218;2022-12-18T09:01:47;23.17;;;13.63;;
9234;SDS011;4652;42.716;23.218;2022-12-18T09:08:36;22.27;;;14.63;;
9234;SDS011;4652;42.716;23.218;2022-12-18T09:15:18;22.53;;;13.50;;
9234;SDS011;4652;42.716;23.218;2022-12-18T09:22:00;19.13;;;13.43;;
9234;SDS011;4652;42.716;23.218;2022-12-18T09:28:43;17.50;;;11.80;;
9234;SDS011;4652;42.716;23.218;2022-12-18T09:35:25;22.57;;;13.07;;
9234;SDS011;4652;42.716;23.218;2022-12-18T09:42:08;26.10;;;16.33;;
9234;SDS011;4652;42.716;23.218;2022-12-18T09:48:59;23.27;;;14.90;;
9234;SDS011;4652;42.716;23.218;2022-12-18T09:55:45;21.90;;;13.30;;
9234;SDS011;4652;42.716;23.218;2022-12-18T10:02:30;18.67;;;11.97;;
9234;SDS011;4652;42.716;23.218;2022-12-18T10:09:15;19.93;;;13.00;;
9234;SDS011;4652;42.716;23.218;2022-12-18T10:16:08;21.57;;;13.60;;
9234;SDS011;4652;42.716;23.218;2022-12-18T10:22:56;26.77;;;17.07;;
9234;SDS011;4652;42.716;23.218;2022-12-18T10:29:45;28.73;;;19.33;;
9234;SDS011;4652;42.716;23.218;2022-12-18T10:36:27;23.47;;;15.70;;
9234;SDS011;4652;42.716;23.218;2022-12-18T10:43:11;15.93;;;11.33;;
9234;SDS011;4652;42.716;23.218;2022-12-18T10:49:55;22.07;;;13.70;;
9234;SDS011;4652;42.716;23.218;2022-12-18T10:56:38;17.47;;;11.53;;
9234;SDS011;4652;42.716;23.218;2022-12-18T11:03:30;15.57;;;10.43;;
9234;SDS011;4652;42.716;23.218;2022-12-18T11:10:17;17.93;;;11.33;;
9234;SDS011;4652;42.716;23.218;2022-12-18T11:17:00;22.97;;;13.90;;
9234;SDS011;4652;42.716;23.218;2022-12-18T11:23:45;13.90;;;9.60;;
9234;SDS011;4652;42.716;23.218;2022-12-18T14:08:08;38.13;;;21.03;;
